createdAt,value
2022-10-12T00:04:15.406Z,97833.66
2022-10-12T00:09:17.085Z,97832.06
2022-10-12T00:14:18.839Z,97825.94
2022-10-12T00:19:20.543Z,97829.81
2022-10-12T00:24:22.406Z,97832.00
2022-10-12T00:29:24.455Z,97823.22
2022-10-12T00:34:26.246Z,97821.25
2022-10-12T00:39:27.931Z,97815.47
2022-10-12T00:44:45.655Z,97806.13
2022-10-12T00:50:10.368Z,97801.69
2022-10-12T00:55:17.722Z,97799.94
2022-10-12T01:00:20.498Z,97793.88
2022-10-12T01:05:23.178Z,97802.66
2022-10-12T01:10:24.849Z,97798.22
2022-10-12T01:15:37.357Z,97803.22
2022-10-12T01:20:57.017Z,97809.03
2022-10-12T01:26:35.707Z,97811.47
2022-10-12T01:31:46.873Z,97808.41
2022-10-12T01:37:20.982Z,97801.78
2022-10-12T01:42:34.175Z,97807.91
2022-10-12T01:47:38.436Z,97818.06
2022-10-12T01:52:51.022Z,97824.13
2022-10-12T01:58:07.782Z,97820.53
2022-10-12T02:03:34.954Z,97808.34
2022-10-12T02:08:51.870Z,97816.69
2022-10-12T02:14:11.185Z,97812.03
2022-10-12T02:19:21.150Z,97813.50
2022-10-12T02:24:23.987Z,97808.16
2022-10-12T02:29:32.735Z,97798.81
2022-10-12T02:34:41.420Z,97791.94
2022-10-12T02:39:54.400Z,97792.22
2022-10-12T02:44:58.392Z,97787.81
2022-10-12T02:50:01.405Z,97790.84
2022-10-12T02:55:04.561Z,97787.50
2022-10-12T03:00:07.076Z,97779.84
2022-10-12T03:05:09.001Z,97780.50
2022-10-12T03:10:10.937Z,97779.47
2022-10-12T03:15:13.103Z,97782.06
2022-10-12T03:20:14.957Z,97793.91
2022-10-12T03:25:17.113Z,97790.56
2022-10-12T03:30:19.101Z,97795.03
2022-10-12T03:35:20.729Z,97796.78
2022-10-12T03:40:22.543Z,97797.88
2022-10-12T03:45:24.181Z,97804.81
2022-10-12T03:50:26.009Z,97795.88
2022-10-12T03:55:27.937Z,97798.09
2022-10-12T04:00:29.903Z,97804.19
2022-10-12T04:05:32.436Z,97804.97
2022-10-12T04:10:34.139Z,97806.59
2022-10-12T04:15:35.922Z,97796.44
2022-10-12T04:20:37.746Z,97792.06
2022-10-12T04:25:39.613Z,97793.22
2022-10-12T04:30:41.311Z,97795.38
2022-10-12T04:35:43.151Z,97789.59
2022-10-12T04:40:49.481Z,97795.88
2022-10-12T04:45:58.831Z,97798.56
2022-10-12T04:51:00.582Z,97791.97
2022-10-12T04:56:04.302Z,97800.22
2022-10-12T05:01:06.232Z,97798.03
2022-10-12T05:06:08.196Z,97807.91
2022-10-12T05:11:10.052Z,97814.56
2022-10-12T05:16:11.828Z,97816.53
2022-10-12T05:21:13.589Z,97814.47
2022-10-12T05:26:15.272Z,97808.47
2022-10-12T05:31:17.177Z,97817.84
2022-10-12T05:36:18.926Z,97818.97
2022-10-12T05:41:20.822Z,97820.59
2022-10-12T05:46:22.960Z,97818.31
2022-10-12T05:51:28.769Z,97827.09
2022-10-12T05:56:31.088Z,97830.38
2022-10-12T06:01:32.956Z,97839.19
2022-10-12T06:06:34.692Z,97833.66
2022-10-12T06:11:36.708Z,97840.78
2022-10-12T06:16:38.519Z,97827.56
2022-10-12T06:21:40.456Z,97828.63
2022-10-12T06:26:42.114Z,97833.91
2022-10-12T06:31:47.677Z,97834.19
2022-10-12T06:36:52.685Z,97834.19
2022-10-12T06:41:54.581Z,97839.69
2022-10-12T06:46:56.425Z,97835.00
2022-10-12T06:51:58.118Z,97837.22
2022-10-12T06:56:59.798Z,97845.78
2022-10-12T07:02:01.568Z,97842.53
2022-10-12T07:07:03.901Z,97850.28
2022-10-12T07:12:05.873Z,97849.22
2022-10-12T07:17:07.529Z,97859.13
2022-10-12T07:22:09.349Z,97856.09
2022-10-12T07:27:11.749Z,97856.91
2022-10-12T07:32:13.433Z,97861.88
2022-10-12T07:37:15.653Z,97856.13
2022-10-12T07:42:19.490Z,97864.13
2022-10-12T07:47:21.588Z,97853.63
2022-10-12T07:52:23.288Z,97858.59
2022-10-12T07:57:25.277Z,97858.63
2022-10-12T08:02:27.009Z,97862.50
2022-10-12T08:07:28.860Z,97863.06
2022-10-12T08:12:30.540Z,97872.97
2022-10-12T08:17:32.222Z,97867.50
2022-10-12T08:22:34.180Z,97865.84
2022-10-12T08:27:38.456Z,97874.66
2022-10-12T08:32:40.475Z,97868.88
2022-10-12T08:37:42.291Z,97868.59
2022-10-12T08:43:03.344Z,97866.66
2022-10-12T08:48:13.207Z,97862.53
2022-10-12T08:53:22.919Z,97853.69
2022-10-12T08:58:31.952Z,97855.38
2022-10-12T09:03:58.248Z,97865.81
2022-10-12T09:09:27.896Z,97865.84
2022-10-12T09:14:35.784Z,97873.53
2022-10-12T09:19:41.091Z,97871.31
2022-10-12T09:24:43.564Z,97871.31
2022-10-12T09:29:49.297Z,97874.06
2022-10-12T09:34:51.136Z,97879.84
2022-10-12T09:39:53.834Z,97876.81
2022-10-12T09:45:12.366Z,97881.75
2022-10-12T09:50:36.213Z,97876.81
2022-10-12T09:55:37.910Z,97884.00
2022-10-12T10:00:40.281Z,97878.47
2022-10-12T10:05:42.155Z,97877.34
2022-10-12T10:10:51.948Z,97885.06
2022-10-12T10:16:04.727Z,97880.63
2022-10-12T10:21:09.033Z,97876.53
2022-10-12T10:31:25.025Z,97878.44
2022-10-12T10:36:27.754Z,97879.56
2022-10-12T10:41:36.634Z,97875.97
2022-10-12T10:46:38.406Z,97863.53
2022-10-12T10:51:46.043Z,97874.56
2022-10-12T10:56:50.768Z,97876.19
2022-10-12T11:01:58.116Z,97865.13
2022-10-12T11:07:10.382Z,97855.75
2022-10-12T11:12:21.328Z,97861.22
2022-10-12T11:17:37.710Z,97862.84
2022-10-12T11:22:50.857Z,97849.09
2022-10-12T11:27:53.856Z,97855.19
2022-10-12T11:33:06.656Z,97849.38
2022-10-12T11:38:31.138Z,97846.28
2022-10-12T11:43:47.857Z,97847.63
2022-10-12T11:48:59.438Z,97850.69
2022-10-12T11:54:08.389Z,97844.06
2022-10-12T11:59:29.590Z,97839.63
2022-10-12T12:04:43.769Z,97838.25
2022-10-12T12:09:50.275Z,97835.50
2022-10-12T12:14:55.767Z,97832.41
2022-10-12T12:20:02.550Z,97825.72
2022-10-12T12:25:07.961Z,97824.03
2022-10-12T12:30:18.574Z,97810.22
2022-10-12T12:35:25.625Z,97811.34
2022-10-12T12:40:28.233Z,97817.38
2022-10-12T12:45:32.681Z,97816.31
2022-10-12T12:50:37.359Z,97810.78
2022-10-12T12:55:59.120Z,97812.41
2022-10-12T13:01:24.847Z,97808.50
2022-10-12T13:07:02.908Z,97816.22
2022-10-12T13:12:35.988Z,97814.84
2022-10-12T13:18:04.006Z,97807.38
2022-10-12T13:23:11.925Z,97811.00
2022-10-12T13:28:23.481Z,97810.47
2022-10-12T13:33:32.739Z,97800.81
2022-10-12T13:38:38.478Z,97809.34
2022-10-12T13:43:52.368Z,97807.44
2022-10-12T13:48:59.660Z,97796.38
2022-10-12T13:54:02.948Z,97791.34
2022-10-12T13:59:07.104Z,97786.56
2022-10-12T14:04:12.372Z,97777.38
2022-10-12T14:09:22.323Z,97770.16
2022-10-12T14:14:28.593Z,97768.50
2022-10-12T14:19:42.823Z,97776.38
2022-10-12T14:24:44.598Z,97776.63
2022-10-12T14:29:47.341Z,97769.81
2022-10-12T14:34:49.538Z,97774.69
2022-10-12T14:39:52.342Z,97773.59
2022-10-12T14:44:54.210Z,97778.00
2022-10-12T14:49:57.807Z,97767.53
2022-10-12T14:55:00.129Z,97768.94
2022-10-12T15:00:02.061Z,97762.56
2022-10-12T15:05:03.966Z,97755.41
2022-10-12T15:10:06.314Z,97761.50
2022-10-12T15:15:16.273Z,97758.28
2022-10-12T15:20:18.946Z,97758.59
2022-10-12T15:25:22.857Z,97752.25
2022-10-12T15:30:24.538Z,97753.91
2022-10-12T15:35:28.957Z,97747.28
2022-10-12T15:40:32.656Z,97747.31
2022-10-12T15:45:37.006Z,97748.47
2022-10-12T15:50:44.585Z,97749.56
2022-10-12T15:55:47.098Z,97752.91
2022-10-12T16:00:49.746Z,97750.72
2022-10-12T16:05:51.508Z,97752.41
2022-10-12T16:10:53.331Z,97752.91
2022-10-12T16:15:55.045Z,97754.53
2022-10-12T16:20:56.892Z,97755.19
2022-10-12T16:25:59.182Z,97751.31
2022-10-12T16:31:01.106Z,97757.94
2022-10-12T16:36:08.664Z,97756.81
2022-10-12T16:41:12.499Z,97759.06
2022-10-12T16:46:14.294Z,97767.88
2022-10-12T16:51:16.085Z,97758.53
2022-10-12T16:56:17.832Z,97752.50
2022-10-12T17:01:19.689Z,97747.00
2022-10-12T17:06:21.330Z,97750.31
2022-10-12T17:11:23.014Z,97748.66
2022-10-12T17:16:43.276Z,97749.78
2022-10-12T17:21:46.386Z,97764.13
2022-10-12T17:26:48.239Z,97764.41
2022-10-12T17:31:51.026Z,97758.34
2022-10-12T17:36:54.375Z,97769.19
2022-10-12T17:41:56.146Z,97765.88
2022-10-12T17:46:58.793Z,97771.97
2022-10-12T17:52:00.538Z,97775.06
2022-10-12T17:57:02.215Z,97771.50
2022-10-12T18:02:06.937Z,97770.47
2022-10-12T18:07:11.139Z,97765.53
2022-10-12T18:12:12.790Z,97765.25
2022-10-12T18:17:14.624Z,97760.88
2022-10-12T18:22:16.685Z,97761.38
2022-10-12T18:27:18.757Z,97761.66
2022-10-12T18:32:20.634Z,97760.59
2022-10-12T18:37:22.427Z,97755.91
2022-10-12T18:42:24.290Z,97772.75
2022-10-12T18:47:26.038Z,97768.34
2022-10-12T18:52:27.716Z,97761.72
2022-10-12T18:57:32.138Z,97763.13
2022-10-12T19:02:36.219Z,97766.44
2022-10-12T19:07:38.066Z,97758.44
2022-10-12T19:12:44.818Z,97766.72
2022-10-12T19:17:47.485Z,97769.47
2022-10-12T19:22:49.252Z,97775.53
2022-10-12T19:27:50.907Z,97784.56
2022-10-12T19:32:52.614Z,97778.25
2022-10-12T19:37:54.499Z,97770.81
2022-10-12T19:42:56.286Z,97774.09
2022-10-12T19:47:57.979Z,97774.41
2022-10-12T19:52:59.673Z,97778.25
2022-10-12T19:58:01.610Z,97771.09
2022-10-12T20:03:04.459Z,97787.06
2022-10-12T20:08:06.201Z,97780.44
2022-10-12T20:13:07.988Z,97791.44
2022-10-12T20:18:09.701Z,97779.88
2022-10-12T20:23:11.706Z,97783.72
2022-10-12T20:28:14.384Z,97784.22
2022-10-12T20:33:16.230Z,97780.63
2022-10-12T20:38:18.490Z,97782.56
2022-10-12T20:43:20.177Z,97772.66
2022-10-12T20:48:22.585Z,97786.38
2022-10-12T20:53:24.450Z,97786.06
2022-10-12T20:58:28.058Z,97784.09
2022-10-12T21:03:30.052Z,97780.88
2022-10-12T21:08:32.451Z,97782.13
2022-10-12T21:13:41.518Z,97780.97
2022-10-12T21:18:43.450Z,97777.03
2022-10-12T21:23:52.118Z,97764.72
2022-10-12T21:28:54.099Z,97772.41
2022-10-12T21:33:56.096Z,97779.75
2022-10-12T21:38:58.089Z,97781.63
2022-10-12T21:43:59.831Z,97764.53
2022-10-12T21:49:02.957Z,97767.03
2022-10-12T21:54:05.786Z,97774.50
2022-10-12T21:59:07.526Z,97761.91
2022-10-12T22:04:14.726Z,97767.47
2022-10-12T22:09:19.028Z,97768.56
2022-10-12T22:14:20.867Z,97770.34
2022-10-12T22:19:22.749Z,97759.69
2022-10-12T22:24:24.402Z,97772.03
2022-10-12T22:29:26.117Z,97767.19
2022-10-12T22:34:28.022Z,97756.34
2022-10-12T22:39:29.771Z,97755.91
2022-10-12T22:44:31.526Z,97744.22
2022-10-12T22:49:33.320Z,97742.63
2022-10-12T22:54:35.127Z,97738.75
2022-10-12T22:59:36.774Z,97748.94
2022-10-12T23:04:38.515Z,97748.94
2022-10-12T23:09:41.286Z,97748.41
2022-10-12T23:14:42.994Z,97748.84
2022-10-12T23:19:44.746Z,97751.38
2022-10-12T23:24:46.734Z,97747.44
2022-10-12T23:29:48.421Z,97741.38
2022-10-12T23:34:50.187Z,97724.84
2022-10-12T23:39:51.862Z,97726.47
2022-10-12T23:44:53.523Z,97715.53
2022-10-12T23:49:55.181Z,97732.28
2022-10-12T23:54:56.994Z,97731.06
2022-10-12T23:59:58.855Z,97731.72
